createdAt,value
2019-05-05T00:01:49.016Z,9.20
2019-05-05T00:04:39.704Z,9.77
2019-05-05T00:07:14.931Z,10.80
2019-05-05T00:09:49.488Z,10.27
2019-05-05T00:12:39.113Z,11.30
2019-05-05T00:15:28.205Z,9.83
2019-05-05T00:18:00.459Z,10.50
2019-05-05T00:20:34.409Z,11.03
2019-05-05T00:23:06.575Z,12.27
2019-05-05T00:25:39.008Z,11.77
2019-05-05T00:28:11.350Z,10.47
2019-05-05T00:30:44.815Z,11.60
2019-05-05T00:33:16.641Z,11.13
2019-05-05T00:35:48.870Z,11.40
2019-05-05T00:38:21.323Z,12.43
2019-05-05T00:40:54.825Z,13.60
2019-05-05T00:43:25.667Z,12.40
2019-05-05T00:46:04.675Z,13.20
2019-05-05T00:48:46.227Z,12.70
2019-05-05T00:51:17.952Z,15.13
2019-05-05T00:53:49.308Z,14.00
2019-05-05T00:56:20.293Z,13.70
2019-05-05T00:58:57.834Z,12.50
2019-05-05T01:01:51.158Z,13.40
2019-05-05T01:04:35.137Z,12.53
2019-05-05T01:07:07.349Z,14.40
2019-05-05T01:09:40.330Z,13.97
2019-05-05T01:12:14.443Z,14.00
2019-05-05T01:14:45.321Z,14.70
2019-05-05T01:17:19.230Z,14.07
2019-05-05T01:20:01.349Z,14.20
2019-05-05T01:22:24.988Z,13.10
2019-05-05T01:24:56.783Z,12.57
2019-05-05T01:27:29.042Z,14.20
2019-05-05T01:30:01.130Z,13.80
2019-05-05T01:32:37.634Z,13.93
2019-05-05T01:35:10.030Z,13.73
2019-05-05T01:38:04.886Z,13.63
2019-05-05T01:40:50.270Z,12.90
2019-05-05T01:43:22.742Z,12.10
2019-05-05T01:45:55.078Z,12.53
2019-05-05T01:48:27.404Z,11.90
2019-05-05T01:50:59.518Z,12.37
2019-05-05T01:53:32.455Z,12.33
2019-05-05T01:56:04.877Z,12.20
2019-05-05T01:58:38.795Z,11.60
2019-05-05T02:01:10.578Z,12.33
2019-05-05T02:03:44.158Z,12.47
2019-05-05T02:06:15.436Z,12.10
2019-05-05T02:08:47.557Z,11.83
2019-05-05T02:11:19.307Z,11.93
2019-05-05T02:13:51.149Z,11.67
2019-05-05T02:16:25.386Z,11.70
2019-05-05T02:18:57.051Z,12.00
2019-05-05T02:21:29.054Z,11.73
2019-05-05T02:24:01.007Z,11.40
2019-05-05T02:26:34.866Z,10.90
2019-05-05T02:29:21.299Z,12.00
2019-05-05T02:32:10.487Z,12.00
2019-05-05T02:34:48.086Z,12.00
2019-05-05T02:37:21.028Z,11.47
2019-05-05T02:40:01.443Z,11.33
2019-05-05T02:42:28.621Z,12.47
2019-05-05T02:45:05.485Z,13.10
2019-05-05T02:47:57.159Z,11.47
2019-05-05T02:50:48.339Z,11.53
2019-05-05T02:53:06.393Z,11.97
2019-05-05T02:55:38.330Z,11.20
2019-05-05T02:58:09.510Z,12.30
2019-05-05T03:00:58.472Z,12.23
2019-05-05T03:03:31.108Z,12.37
2019-05-05T03:06:04.434Z,12.10
2019-05-05T03:08:38.266Z,11.80
2019-05-05T03:11:11.686Z,11.80
2019-05-05T03:13:45.036Z,13.23
2019-05-05T03:16:23.771Z,12.07
2019-05-05T03:18:56.406Z,13.23
2019-05-05T03:21:28.190Z,12.43
2019-05-05T03:23:59.690Z,12.67
2019-05-05T03:26:33.892Z,11.50
2019-05-05T03:29:06.754Z,12.10
2019-05-05T03:31:39.670Z,11.93
2019-05-05T03:34:12.033Z,12.70
2019-05-05T03:36:45.211Z,10.60
2019-05-05T03:39:25.350Z,11.73
2019-05-05T03:42:25.668Z,12.53
2019-05-05T03:45:00.853Z,11.00
2019-05-05T03:47:33.698Z,13.30
2019-05-05T03:50:06.986Z,12.37
2019-05-05T03:52:38.111Z,13.17
2019-05-05T03:55:10.414Z,11.50
2019-05-05T03:57:41.710Z,12.87
2019-05-05T04:00:14.259Z,13.40
2019-05-05T04:02:50.832Z,11.17
2019-05-05T04:05:39.214Z,13.00
2019-05-05T04:08:10.432Z,12.93
2019-05-05T04:10:43.991Z,12.80
2019-05-05T04:13:17.386Z,12.40
2019-05-05T04:16:08.380Z,13.07
2019-05-05T04:18:51.022Z,14.13
2019-05-05T04:21:31.244Z,12.53
2019-05-05T04:23:56.859Z,14.90
2019-05-05T04:26:28.347Z,14.50
2019-05-05T04:29:02.453Z,13.27
2019-05-05T04:31:34.561Z,12.63
2019-05-05T04:34:05.950Z,15.20
2019-05-05T04:36:37.943Z,14.27
2019-05-05T04:39:09.070Z,14.07
2019-05-05T04:41:40.868Z,13.20
2019-05-05T04:44:14.830Z,11.70
2019-05-05T04:46:48.514Z,14.00
2019-05-05T04:49:29.283Z,13.87
2019-05-05T04:52:04.111Z,13.00
2019-05-05T04:54:43.908Z,13.63
2019-05-05T04:57:16.799Z,13.20
2019-05-05T04:59:50.674Z,13.77
2019-05-05T05:02:47.708Z,14.43
2019-05-05T05:05:27.757Z,12.63
2019-05-05T05:07:59.777Z,12.20
2019-05-05T05:10:31.501Z,12.83
2019-05-05T05:13:04.654Z,13.47
2019-05-05T05:15:36.431Z,14.83
2019-05-05T05:18:14.756Z,14.20
2019-05-05T05:20:47.591Z,13.67
2019-05-05T05:23:20.126Z,13.07
2019-05-05T05:25:51.911Z,13.63
2019-05-05T05:28:24.152Z,14.10
2019-05-05T05:30:56.542Z,14.10
2019-05-05T05:33:28.190Z,13.00
2019-05-05T05:35:59.480Z,15.20
2019-05-05T05:38:31.588Z,14.83
2019-05-05T05:41:18.155Z,14.70
2019-05-05T05:44:08.849Z,16.37
2019-05-05T05:46:55.838Z,16.57
2019-05-05T05:49:35.632Z,19.80
2019-05-05T05:52:15.812Z,16.70
2019-05-05T05:54:40.470Z,17.33
2019-05-05T05:57:13.626Z,17.30
2019-05-05T05:59:45.739Z,15.37
2019-05-05T06:02:18.557Z,16.23
2019-05-05T06:04:53.755Z,16.43
2019-05-05T06:07:25.292Z,15.27
2019-05-05T06:09:56.829Z,14.80
2019-05-05T06:12:28.847Z,14.00
2019-05-05T06:15:00.431Z,14.90
2019-05-05T06:17:34.327Z,14.80
2019-05-05T06:20:07.019Z,14.37
2019-05-05T06:22:38.292Z,14.73
2019-05-05T06:25:10.611Z,16.10
2019-05-05T06:27:45.118Z,15.27
2019-05-05T06:30:17.669Z,17.30
2019-05-05T06:32:49.740Z,18.30
2019-05-05T06:35:20.828Z,17.03
2019-05-05T06:37:56.307Z,17.63
2019-05-05T06:40:50.075Z,17.97
2019-05-05T06:43:30.983Z,16.97
2019-05-05T06:46:04.146Z,16.97
2019-05-05T06:48:36.467Z,18.07
2019-05-05T06:51:08.622Z,18.40
2019-05-05T06:53:40.538Z,17.40
2019-05-05T06:56:14.580Z,17.13
2019-05-05T06:58:46.118Z,19.87
2019-05-05T07:01:18.380Z,20.50
2019-05-05T07:03:50.236Z,19.90
2019-05-05T07:06:23.803Z,20.27
2019-05-05T07:08:54.761Z,19.50
2019-05-05T07:11:25.835Z,20.83
2019-05-05T07:13:56.891Z,18.53
2019-05-05T07:16:28.940Z,20.10
2019-05-05T07:20:04.309Z,20.03
2019-05-05T07:22:37.516Z,19.17
2019-05-05T07:25:10.769Z,18.20
2019-05-05T07:27:44.085Z,18.70
2019-05-05T07:30:16.054Z,18.03
2019-05-05T07:32:47.614Z,19.23
2019-05-05T07:35:26.074Z,17.30
2019-05-05T07:37:58.201Z,18.83
2019-05-05T07:40:30.993Z,20.37
2019-05-05T07:43:04.534Z,18.40
2019-05-05T07:45:50.836Z,18.90
2019-05-05T07:48:24.316Z,18.57
2019-05-05T07:51:02.083Z,18.50
2019-05-05T07:53:29.443Z,19.10
2019-05-05T07:56:03.566Z,17.57
2019-05-05T07:58:36.118Z,18.57
2019-05-05T08:01:08.488Z,19.23
2019-05-05T08:03:40.402Z,20.67
2019-05-05T08:06:14.499Z,18.40
2019-05-05T08:08:46.157Z,18.20
2019-05-05T08:11:18.040Z,18.47
2019-05-05T08:13:50.684Z,18.70
2019-05-05T08:16:33.674Z,18.80
2019-05-05T08:19:18.277Z,19.70
2019-05-05T08:21:51.491Z,55.53
2019-05-05T08:24:33.708Z,20.23
2019-05-05T08:27:20.924Z,18.30
2019-05-05T08:29:56.275Z,17.20
2019-05-05T08:32:33.538Z,17.30
2019-05-05T08:35:05.951Z,17.67
2019-05-05T08:37:40.004Z,16.90
2019-05-05T08:40:14.792Z,16.33
2019-05-05T08:42:46.802Z,16.10
2019-05-05T08:45:18.587Z,16.17
2019-05-05T08:47:50.237Z,15.97
2019-05-05T08:50:24.789Z,16.53
2019-05-05T08:52:55.710Z,16.23
2019-05-05T08:55:28.486Z,18.20
2019-05-05T08:58:00.555Z,16.93
2019-05-05T09:00:33.852Z,15.73
2019-05-05T09:03:06.361Z,15.93
2019-05-05T09:05:38.756Z,16.20
2019-05-05T09:08:10.615Z,16.40
2019-05-05T09:10:44.766Z,15.40
2019-05-05T09:13:16.943Z,15.70
2019-05-05T09:15:49.064Z,16.10
2019-05-05T09:18:21.432Z,14.90
2019-05-05T09:20:59.277Z,14.80
2019-05-05T09:23:56.581Z,15.30
2019-05-05T09:26:34.905Z,15.67
2019-05-05T09:29:15.469Z,14.67
2019-05-05T09:31:48.988Z,14.90
2019-05-05T09:34:20.326Z,14.47
2019-05-05T09:36:51.509Z,14.80
2019-05-05T09:39:25.112Z,14.83
2019-05-05T09:41:56.587Z,15.10
2019-05-05T09:44:28.349Z,14.90
2019-05-05T09:47:00.915Z,15.47
2019-05-05T09:49:33.862Z,15.10
2019-05-05T09:52:06.133Z,15.00
2019-05-05T09:54:37.859Z,14.97
2019-05-05T09:57:09.070Z,14.23
2019-05-05T09:59:43.919Z,14.83
2019-05-05T10:02:15.321Z,14.47
2019-05-05T10:04:47.265Z,14.40
2019-05-05T10:07:18.668Z,14.83
2019-05-05T10:09:49.619Z,15.27
2019-05-05T10:12:21.150Z,14.73
2019-05-05T10:14:54.238Z,15.20
2019-05-05T10:17:26.045Z,14.90
2019-05-05T10:19:58.540Z,14.93
2019-05-05T10:22:29.430Z,15.00
2019-05-05T10:25:17.988Z,14.83
2019-05-05T10:27:49.533Z,15.00
2019-05-05T10:30:23.722Z,16.17
2019-05-05T10:32:55.308Z,15.67
2019-05-05T10:35:26.962Z,15.63
2019-05-05T10:37:58.707Z,15.50
2019-05-05T10:40:33.934Z,15.53
2019-05-05T10:43:05.922Z,15.53
2019-05-05T10:45:38.275Z,16.87
2019-05-05T10:48:10.109Z,15.70
2019-05-05T10:50:41.428Z,15.10
2019-05-05T10:53:13.664Z,15.67
2019-05-05T10:55:46.674Z,14.97
2019-05-05T10:58:18.345Z,14.40
2019-05-05T11:01:03.954Z,14.77
2019-05-05T11:03:34.998Z,14.60
2019-05-05T11:06:06.788Z,20.07
2019-05-05T11:08:38.571Z,15.00
2019-05-05T11:11:09.668Z,14.97
2019-05-05T11:13:42.873Z,14.90
2019-05-05T11:16:14.567Z,14.03
2019-05-05T11:18:46.760Z,14.60
2019-05-05T11:21:18.559Z,14.90
2019-05-05T11:23:49.988Z,13.77
2019-05-05T11:26:24.678Z,14.13
2019-05-05T11:28:57.015Z,14.63
2019-05-05T11:31:28.950Z,14.77
2019-05-05T11:34:06.748Z,13.90
2019-05-05T11:37:09.146Z,14.50
2019-05-05T11:39:40.707Z,14.67
2019-05-05T11:42:14.126Z,14.07
2019-05-05T11:44:47.579Z,14.03
2019-05-05T11:47:19.450Z,13.87
2019-05-05T11:49:54.605Z,14.50
2019-05-05T11:52:26.189Z,13.90
2019-05-05T11:55:08.931Z,14.90
2019-05-05T11:57:30.600Z,13.60
2019-05-05T12:00:03.845Z,13.53
2019-05-05T12:02:35.969Z,14.47
2019-05-05T12:05:10.239Z,12.80
2019-05-05T12:07:43.671Z,16.87
2019-05-05T12:10:34.422Z,15.60
2019-05-05T12:13:07.938Z,13.17
2019-05-05T12:15:39.387Z,14.60
2019-05-05T12:18:11.110Z,13.03
2019-05-05T12:20:44.148Z,12.13
2019-05-05T12:23:15.947Z,12.60
2019-05-05T12:26:06.101Z,13.03
2019-05-05T12:28:48.707Z,13.10
2019-05-05T12:31:24.876Z,13.00
2019-05-05T12:33:56.988Z,13.67
2019-05-05T12:36:29.707Z,15.13
2019-05-05T12:39:03.705Z,13.30
2019-05-05T12:41:35.107Z,13.43
2019-05-05T12:44:09.961Z,13.70
2019-05-05T12:46:58.520Z,12.40
2019-05-05T12:49:30.233Z,13.17
2019-05-05T12:52:04.531Z,13.00
2019-05-05T12:54:36.494Z,14.47
2019-05-05T12:57:09.580Z,13.80
2019-05-05T12:59:44.280Z,13.50
2019-05-05T13:02:17.190Z,13.73
2019-05-05T13:04:48.267Z,13.10
2019-05-05T13:07:20.276Z,13.10
2019-05-05T13:09:51.868Z,13.07
2019-05-05T13:12:23.958Z,13.23
2019-05-05T13:14:56.731Z,14.23
2019-05-05T13:17:28.640Z,13.27
2019-05-05T13:20:05.937Z,13.50
2019-05-05T13:23:04.163Z,14.00
2019-05-05T13:25:58.491Z,14.23
2019-05-05T13:28:26.971Z,13.87
2019-05-05T13:30:59.387Z,14.70
2019-05-05T13:33:31.021Z,14.20
2019-05-05T13:36:04.298Z,24.50
2019-05-05T13:38:35.708Z,16.13
2019-05-05T13:41:07.307Z,14.50
2019-05-05T13:43:40.087Z,14.37
2019-05-05T13:46:25.278Z,15.37
2019-05-05T13:49:15.368Z,13.87
2019-05-05T13:51:47.614Z,14.63
2019-05-05T13:54:19.707Z,15.10
2019-05-05T13:56:51.626Z,14.63
2019-05-05T13:59:25.630Z,14.97
2019-05-05T14:01:58.068Z,16.20
2019-05-05T14:04:30.639Z,15.50
2019-05-05T14:07:03.993Z,15.00
2019-05-05T14:09:36.509Z,15.67
2019-05-05T14:12:08.495Z,15.07
2019-05-05T14:14:40.309Z,15.40
2019-05-05T14:17:14.608Z,15.60
2019-05-05T14:19:45.671Z,14.60
2019-05-05T14:22:19.335Z,15.37
2019-05-05T14:25:04.709Z,15.80
2019-05-05T14:27:37.530Z,16.57
2019-05-05T14:30:43.990Z,15.30
2019-05-05T14:33:20.753Z,21.37
2019-05-05T14:36:14.222Z,15.93
2019-05-05T14:38:53.937Z,15.97
2019-05-05T14:41:26.843Z,15.30
2019-05-05T14:43:59.114Z,14.33
2019-05-05T14:46:30.857Z,14.83
2019-05-05T14:49:05.438Z,13.57
2019-05-05T14:51:38.472Z,13.37
2019-05-05T14:54:10.860Z,14.00
2019-05-05T14:56:44.052Z,13.53
2019-05-05T14:59:15.588Z,15.27
2019-05-05T15:01:47.078Z,14.10
2019-05-05T15:04:20.829Z,14.03
2019-05-05T15:07:03.613Z,13.53
2019-05-05T15:10:01.605Z,14.00
2019-05-05T15:12:37.710Z,14.70
2019-05-05T15:15:09.982Z,15.20
2019-05-05T15:17:42.191Z,14.13
2019-05-05T15:20:15.068Z,13.50
2019-05-05T15:22:47.012Z,14.00
2019-05-05T15:25:19.323Z,14.10
2019-05-05T15:27:54.072Z,14.60
2019-05-05T15:30:27.242Z,13.43
2019-05-05T15:33:00.030Z,18.17
2019-05-05T15:35:33.860Z,15.23
2019-05-05T15:38:05.793Z,14.43
2019-05-05T15:40:39.723Z,13.63
2019-05-05T15:43:14.253Z,13.67
2019-05-05T15:45:46.792Z,14.43
2019-05-05T15:48:19.508Z,14.70
2019-05-05T15:50:51.891Z,13.73
2019-05-05T15:53:24.367Z,13.27
2019-05-05T15:55:57.022Z,13.47
2019-05-05T15:58:29.549Z,13.43
2019-05-05T16:01:03.647Z,12.73
2019-05-05T16:03:36.668Z,16.30
2019-05-05T16:06:08.897Z,15.67
2019-05-05T16:08:41.140Z,14.70
2019-05-05T16:11:14.712Z,14.47
2019-05-05T16:13:48.674Z,14.53
2019-05-05T16:16:34.164Z,13.87
2019-05-05T16:19:18.624Z,17.80
2019-05-05T16:22:00.045Z,19.03
2019-05-05T16:24:36.582Z,17.83
2019-05-05T16:27:21.768Z,18.73
2019-05-05T16:29:50.217Z,25.77
2019-05-05T16:32:24.805Z,23.10
2019-05-05T16:35:14.517Z,17.10
2019-05-05T16:37:45.320Z,15.07
2019-05-05T16:40:18.682Z,15.93
2019-05-05T16:42:54.289Z,16.40
2019-05-05T16:45:27.799Z,15.70
2019-05-05T16:48:01.357Z,13.80
2019-05-05T16:50:36.829Z,14.10
2019-05-05T16:53:11.753Z,14.40
2019-05-05T16:55:53.835Z,15.73
2019-05-05T16:58:26.884Z,13.90
2019-05-05T17:00:59.687Z,13.80
2019-05-05T17:03:32.436Z,17.63
2019-05-05T17:06:06.123Z,12.60
2019-05-05T17:08:39.152Z,12.30
2019-05-05T17:11:11.554Z,12.13
2019-05-05T17:13:51.843Z,12.03
2019-05-05T17:16:44.199Z,12.53
2019-05-05T17:19:42.034Z,12.00
2019-05-05T17:22:23.175Z,15.80
2019-05-05T17:24:56.067Z,12.23
2019-05-05T17:27:28.549Z,14.87
2019-05-05T17:30:01.658Z,12.20
2019-05-05T17:32:39.104Z,13.70
2019-05-05T17:35:14.375Z,14.40
2019-05-05T17:37:48.834Z,13.20
2019-05-05T17:40:39.915Z,38.67
2019-05-05T17:43:27.356Z,18.60
2019-05-05T17:46:05.247Z,17.77
2019-05-05T17:48:47.041Z,18.30
2019-05-05T17:51:43.680Z,21.20
2019-05-05T17:54:24.287Z,20.27
2019-05-05T17:56:57.949Z,16.63
2019-05-05T17:59:30.711Z,15.43
2019-05-05T18:02:04.782Z,14.57
2019-05-05T18:04:37.830Z,15.60
2019-05-05T18:07:21.247Z,16.40
2019-05-05T18:10:13.501Z,16.57
2019-05-05T18:13:03.884Z,16.47
2019-05-05T18:15:54.209Z,14.13
2019-05-05T18:18:26.746Z,15.30
2019-05-05T18:21:00.193Z,14.97
2019-05-05T18:23:36.827Z,15.13
2019-05-05T18:26:13.674Z,15.00
2019-05-05T18:28:48.098Z,16.20
2019-05-05T18:31:21.969Z,14.10
2019-05-05T18:34:01.451Z,15.60
2019-05-05T18:36:33.957Z,16.30
2019-05-05T18:39:08.267Z,15.80
2019-05-05T18:42:00.728Z,17.13
2019-05-05T18:44:36.360Z,16.07
2019-05-05T18:47:15.690Z,15.40
2019-05-05T18:49:48.107Z,15.87
2019-05-05T18:52:56.634Z,16.50
2019-05-05T18:55:38.110Z,16.57
2019-05-05T18:58:11.890Z,15.83
2019-05-05T19:01:13.366Z,17.20
2019-05-05T19:04:04.243Z,18.27
2019-05-05T19:06:54.588Z,15.97
2019-05-05T19:09:27.872Z,17.30
2019-05-05T19:12:00.900Z,16.27
2019-05-05T19:14:35.025Z,17.37
2019-05-05T19:17:07.706Z,16.90
2019-05-05T19:19:44.680Z,17.57
2019-05-05T19:22:19.388Z,18.37
2019-05-05T19:24:54.866Z,18.13
2019-05-05T19:27:27.870Z,18.40
2019-05-05T19:30:01.150Z,19.70
2019-05-05T19:32:34.978Z,19.50
2019-05-05T19:35:11.108Z,19.60
2019-05-05T19:37:44.523Z,19.20
2019-05-05T19:40:29.770Z,19.37
2019-05-05T19:43:14.507Z,20.07
2019-05-05T19:45:57.911Z,21.40
2019-05-05T19:48:30.907Z,20.60
2019-05-05T19:51:24.928Z,21.47
2019-05-05T19:53:57.836Z,20.50
2019-05-05T19:56:45.454Z,21.47
2019-05-05T19:59:19.109Z,21.53
2019-05-05T20:01:53.861Z,20.50
2019-05-05T20:04:33.593Z,21.50
2019-05-05T20:07:05.007Z,20.67
2019-05-05T20:09:37.869Z,21.53
2019-05-05T20:12:10.053Z,19.80
2019-05-05T20:14:54.272Z,20.13
2019-05-05T20:17:33.714Z,18.90
2019-05-05T20:20:08.329Z,19.20
2019-05-05T20:22:44.285Z,19.53
2019-05-05T20:25:16.305Z,18.17
2019-05-05T20:27:48.854Z,17.47
2019-05-05T20:30:20.744Z,19.20
2019-05-05T20:33:04.383Z,19.93
2019-05-05T20:35:41.958Z,17.93
2019-05-05T20:38:23.852Z,19.57
2019-05-05T20:41:14.350Z,20.10
2019-05-05T20:43:46.989Z,20.67
2019-05-05T20:46:19.601Z,21.27
2019-05-05T20:48:54.256Z,21.03
2019-05-05T20:51:26.027Z,21.80
2019-05-05T20:53:57.681Z,19.80
2019-05-05T20:56:33.833Z,21.00
2019-05-05T20:59:05.360Z,21.53
2019-05-05T21:01:36.741Z,21.20
2019-05-05T21:04:08.724Z,21.20
2019-05-05T21:06:40.251Z,20.90
2019-05-05T21:09:14.209Z,20.33
2019-05-05T21:11:45.923Z,19.03
2019-05-05T21:14:31.132Z,19.60
2019-05-05T21:16:51.555Z,20.63
2019-05-05T21:19:24.738Z,19.30
2019-05-05T21:21:58.376Z,19.27
2019-05-05T21:24:30.629Z,18.07
2019-05-05T21:27:05.066Z,18.57
2019-05-05T21:29:41.922Z,17.33
2019-05-05T21:32:10.268Z,18.50
2019-05-05T21:34:44.389Z,17.50
2019-05-05T21:37:16.804Z,18.33
2019-05-05T21:39:48.746Z,17.50
2019-05-05T21:42:20.456Z,17.73
2019-05-05T21:44:53.915Z,16.67
2019-05-05T21:47:26.252Z,17.20
2019-05-05T21:49:58.276Z,16.83
2019-05-05T21:52:41.377Z,16.73
2019-05-05T21:55:35.892Z,15.67
2019-05-05T21:58:29.202Z,15.03
2019-05-05T22:01:16.177Z,15.63
2019-05-05T22:03:48.414Z,14.63
2019-05-05T22:06:20.170Z,15.27
2019-05-05T22:08:53.738Z,13.73
2019-05-05T22:11:26.356Z,14.87
2019-05-05T22:13:58.794Z,14.27
2019-05-05T22:16:30.180Z,14.10
2019-05-05T22:19:03.661Z,13.77
2019-05-05T22:21:44.539Z,15.00
2019-05-05T22:24:26.034Z,15.47
2019-05-05T22:26:57.152Z,15.13
2019-05-05T22:29:28.670Z,15.07
2019-05-05T22:32:00.330Z,15.40
2019-05-05T22:34:33.524Z,15.27
2019-05-05T22:37:09.249Z,16.00
2019-05-05T22:39:39.232Z,15.20
2019-05-05T22:42:10.147Z,15.57
2019-05-05T22:44:41.756Z,14.77
2019-05-05T22:47:13.937Z,14.27
2019-05-05T22:49:45.507Z,13.70
2019-05-05T22:52:16.587Z,14.90
2019-05-05T22:54:49.085Z,14.20
2019-05-05T22:57:20.907Z,14.20
2019-05-05T22:59:54.120Z,14.27
2019-05-05T23:02:30.503Z,13.80
2019-05-05T23:05:08.278Z,14.93
2019-05-05T23:07:46.905Z,14.30
2019-05-05T23:10:19.630Z,14.20
2019-05-05T23:12:51.214Z,14.03
2019-05-05T23:15:25.260Z,15.00
2019-05-05T23:18:18.207Z,14.70
2019-05-05T23:21:16.178Z,13.73
2019-05-05T23:24:03.778Z,13.63
2019-05-05T23:26:37.929Z,12.80
2019-05-05T23:29:09.548Z,14.57
2019-05-05T23:31:44.297Z,13.03
2019-05-05T23:34:15.634Z,14.70
2019-05-05T23:36:47.877Z,13.70
2019-05-05T23:39:20.666Z,14.80
2019-05-05T23:41:54.492Z,13.27
2019-05-05T23:44:25.762Z,14.80
2019-05-05T23:46:57.076Z,14.50
2019-05-05T23:49:28.502Z,14.70
2019-05-05T23:51:59.951Z,14.27
2019-05-05T23:54:33.983Z,15.10
2019-05-05T23:57:05.288Z,13.67
2019-05-05T23:59:37.031Z,13.70
